sensor_id;sensor_type;location;lat;lon;timestamp;P1;durP1;ratioP1;P2;durP2;ratioP2
73107;SDS011;61559;50.476;15.588;2022-09-27T00:01:41;5.90;;;3.80;;
73107;SDS011;61559;50.476;15.588;2022-09-27T00:04:14;6.60;;;3.80;;
73107;SDS011;61559;50.476;15.588;2022-09-27T00:06:45;6.20;;;3.70;;
73107;SDS011;61559;50.476;15.588;2022-09-27T00:09:16;7.50;;;4.30;;
73107;SDS011;61559;50.476;15.588;2022-09-27T00:11:47;7.40;;;4.10;;
73107;SDS011;61559;50.476;15.588;2022-09-27T00:14:18;7.20;;;4.20;;
73107;SDS011;61559;50.476;15.588;2022-09-27T00:16:49;4.90;;;3.40;;
73107;SDS011;61559;50.476;15.588;2022-09-27T00:19:22;5.50;;;3.40;;
73107;SDS011;61559;50.476;15.588;2022-09-27T00:21:54;6.60;;;4.30;;
73107;SDS011;61559;50.476;15.588;2022-09-27T00:24:28;6.40;;;4.20;;
73107;SDS011;61559;50.476;15.588;2022-09-27T00:26:59;7.00;;;4.40;;
73107;SDS011;61559;50.476;15.588;2022-09-27T00:29:30;7.00;;;4.50;;
73107;SDS011;61559;50.476;15.588;2022-09-27T00:32:02;6.90;;;4.00;;
73107;SDS011;61559;50.476;15.588;2022-09-27T00:34:33;7.80;;;4.50;;
73107;SDS011;61559;50.476;15.588;2022-09-27T00:37:04;7.10;;;4.00;;
73107;SDS011;61559;50.476;15.588;2022-09-27T00:39:35;7.20;;;4.20;;
73107;SDS011;61559;50.476;15.588;2022-09-27T00:42:07;7.40;;;4.70;;
73107;SDS011;61559;50.476;15.588;2022-09-27T00:45:03;9.80;;;6.00;;
73107;SDS011;61559;50.476;15.588;2022-09-27T00:47:42;8.40;;;4.90;;
73107;SDS011;61559;50.476;15.588;2022-09-27T00:50:24;9.00;;;5.20;;
73107;SDS011;61559;50.476;15.588;2022-09-27T00:53:01;10.10;;;5.40;;
73107;SDS011;61559;50.476;15.588;2022-09-27T00:55:38;10.50;;;5.60;;
73107;SDS011;61559;50.476;15.588;2022-09-27T00:58:12;9.20;;;4.90;;
73107;SDS011;61559;50.476;15.588;2022-09-27T01:00:47;10.80;;;5.30;;
73107;SDS011;61559;50.476;15.588;2022-09-27T01:03:24;11.00;;;5.30;;
73107;SDS011;61559;50.476;15.588;2022-09-27T01:05:59;6.90;;;4.30;;
73107;SDS011;61559;50.476;15.588;2022-09-27T01:08:31;10.10;;;4.20;;
73107;SDS011;61559;50.476;15.588;2022-09-27T01:11:06;5.90;;;4.20;;
73107;SDS011;61559;50.476;15.588;2022-09-27T01:13:51;9.60;;;4.70;;
73107;SDS011;61559;50.476;15.588;2022-09-27T01:16:35;7.30;;;4.00;;
73107;SDS011;61559;50.476;15.588;2022-09-27T01:19:16;6.40;;;4.20;;
73107;SDS011;61559;50.476;15.588;2022-09-27T01:22:11;7.10;;;4.50;;
73107;SDS011;61559;50.476;15.588;2022-09-27T01:24:51;7.40;;;4.00;;
73107;SDS011;61559;50.476;15.588;2022-09-27T01:27:52;6.90;;;3.80;;
73107;SDS011;61559;50.476;15.588;2022-09-27T01:30:48;5.50;;;3.70;;
73107;SDS011;61559;50.476;15.588;2022-09-27T01:33:24;7.80;;;4.40;;
73107;SDS011;61559;50.476;15.588;2022-09-27T01:36:15;6.40;;;4.10;;
73107;SDS011;61559;50.476;15.588;2022-09-27T01:38:53;6.00;;;3.80;;
73107;SDS011;61559;50.476;15.588;2022-09-27T01:41:35;6.40;;;4.30;;
73107;SDS011;61559;50.476;15.588;2022-09-27T01:44:14;7.40;;;3.90;;
73107;SDS011;61559;50.476;15.588;2022-09-27T01:46:50;6.90;;;4.00;;
73107;SDS011;61559;50.476;15.588;2022-09-27T01:49:25;7.70;;;4.00;;
73107;SDS011;61559;50.476;15.588;2022-09-27T01:51:59;6.50;;;3.90;;
73107;SDS011;61559;50.476;15.588;2022-09-27T01:54:35;8.30;;;3.60;;
73107;SDS011;61559;50.476;15.588;2022-09-27T01:57:08;6.30;;;3.90;;
73107;SDS011;61559;50.476;15.588;2022-09-27T01:59:45;6.70;;;4.10;;
73107;SDS011;61559;50.476;15.588;2022-09-27T02:02:23;9.40;;;4.00;;
73107;SDS011;61559;50.476;15.588;2022-09-27T02:04:59;6.10;;;4.00;;
73107;SDS011;61559;50.476;15.588;2022-09-27T02:07:34;7.80;;;4.60;;
73107;SDS011;61559;50.476;15.588;2022-09-27T02:10:11;8.20;;;3.90;;
73107;SDS011;61559;50.476;15.588;2022-09-27T02:12:50;6.50;;;4.00;;
73107;SDS011;61559;50.476;15.588;2022-09-27T02:15:25;6.40;;;4.30;;
73107;SDS011;61559;50.476;15.588;2022-09-27T02:18:01;5.50;;;3.90;;
73107;SDS011;61559;50.476;15.588;2022-09-27T02:20:44;7.70;;;3.80;;
73107;SDS011;61559;50.476;15.588;2022-09-27T02:25:52;7.00;;;4.20;;
73107;SDS011;61559;50.476;15.588;2022-09-27T02:28:27;9.10;;;4.60;;
73107;SDS011;61559;50.476;15.588;2022-09-27T02:31:01;11.90;;;4.80;;
73107;SDS011;61559;50.476;15.588;2022-09-27T02:33:33;11.10;;;4.90;;
73107;SDS011;61559;50.476;15.588;2022-09-27T02:36:08;6.50;;;4.30;;
73107;SDS011;61559;50.476;15.588;2022-09-27T02:38:40;11.20;;;5.30;;
73107;SDS011;61559;50.476;15.588;2022-09-27T02:41:14;11.20;;;4.80;;
73107;SDS011;61559;50.476;15.588;2022-09-27T02:43:47;9.80;;;4.90;;
73107;SDS011;61559;50.476;15.588;2022-09-27T02:46:24;9.60;;;5.00;;
73107;SDS011;61559;50.476;15.588;2022-09-27T02:49:11;13.60;;;5.80;;
73107;SDS011;61559;50.476;15.588;2022-09-27T02:51:59;9.10;;;4.90;;
73107;SDS011;61559;50.476;15.588;2022-09-27T02:54:43;8.90;;;5.20;;
73107;SDS011;61559;50.476;15.588;2022-09-27T02:57:24;7.10;;;3.90;;
73107;SDS011;61559;50.476;15.588;2022-09-27T03:00:03;6.80;;;4.70;;
73107;SDS011;61559;50.476;15.588;2022-09-27T03:02:40;7.70;;;4.60;;
73107;SDS011;61559;50.476;15.588;2022-09-27T03:05:21;6.30;;;4.30;;
73107;SDS011;61559;50.476;15.588;2022-09-27T03:07:56;8.40;;;5.70;;
73107;SDS011;61559;50.476;15.588;2022-09-27T03:12:57;8.60;;;4.50;;
73107;SDS011;61559;50.476;15.588;2022-09-27T03:17:57;7.50;;;4.40;;
73107;SDS011;61559;50.476;15.588;2022-09-27T03:20:28;10.10;;;5.70;;
73107;SDS011;61559;50.476;15.588;2022-09-27T03:22:59;9.00;;;4.80;;
73107;SDS011;61559;50.476;15.588;2022-09-27T03:25:30;7.60;;;5.00;;
73107;SDS011;61559;50.476;15.588;2022-09-27T03:30:32;8.60;;;5.20;;
73107;SDS011;61559;50.476;15.588;2022-09-27T03:33:03;8.80;;;5.30;;
73107;SDS011;61559;50.476;15.588;2022-09-27T03:35:36;8.80;;;5.30;;
73107;SDS011;61559;50.476;15.588;2022-09-27T03:38:08;9.20;;;5.30;;
73107;SDS011;61559;50.476;15.588;2022-09-27T03:40:40;7.50;;;5.10;;
73107;SDS011;61559;50.476;15.588;2022-09-27T03:43:11;8.80;;;5.30;;
73107;SDS011;61559;50.476;15.588;2022-09-27T03:45:43;10.20;;;5.70;;
73107;SDS011;61559;50.476;15.588;2022-09-27T03:48:14;9.90;;;5.20;;
73107;SDS011;61559;50.476;15.588;2022-09-27T03:50:45;8.90;;;5.70;;
73107;SDS011;61559;50.476;15.588;2022-09-27T03:53:18;8.50;;;4.90;;
73107;SDS011;61559;50.476;15.588;2022-09-27T03:55:49;8.00;;;4.70;;
73107;SDS011;61559;50.476;15.588;2022-09-27T03:58:20;9.20;;;4.90;;
73107;SDS011;61559;50.476;15.588;2022-09-27T04:00:51;7.60;;;4.70;;
73107;SDS011;61559;50.476;15.588;2022-09-27T04:03:22;7.00;;;5.20;;
73107;SDS011;61559;50.476;15.588;2022-09-27T04:05:54;8.40;;;4.90;;
73107;SDS011;61559;50.476;15.588;2022-09-27T04:08:27;9.50;;;5.30;;
73107;SDS011;61559;50.476;15.588;2022-09-27T04:10:58;9.90;;;5.80;;
73107;SDS011;61559;50.476;15.588;2022-09-27T04:13:30;13.20;;;5.90;;
73107;SDS011;61559;50.476;15.588;2022-09-27T04:18:31;7.70;;;4.50;;
73107;SDS011;61559;50.476;15.588;2022-09-27T04:23:31;12.50;;;5.40;;
73107;SDS011;61559;50.476;15.588;2022-09-27T04:26:03;10.00;;;5.30;;
73107;SDS011;61559;50.476;15.588;2022-09-27T04:28:34;7.60;;;4.80;;
73107;SDS011;61559;50.476;15.588;2022-09-27T04:31:05;8.00;;;4.20;;
73107;SDS011;61559;50.476;15.588;2022-09-27T04:33:37;8.70;;;5.80;;
73107;SDS011;61559;50.476;15.588;2022-09-27T04:36:08;8.30;;;4.90;;
73107;SDS011;61559;50.476;15.588;2022-09-27T04:38:56;8.70;;;5.60;;
73107;SDS011;61559;50.476;15.588;2022-09-27T04:41:29;8.60;;;5.70;;
73107;SDS011;61559;50.476;15.588;2022-09-27T04:44:02;9.30;;;5.80;;
73107;SDS011;61559;50.476;15.588;2022-09-27T04:46:34;11.00;;;5.70;;
73107;SDS011;61559;50.476;15.588;2022-09-27T04:49:05;13.40;;;6.60;;
73107;SDS011;61559;50.476;15.588;2022-09-27T04:51:36;12.70;;;9.10;;
73107;SDS011;61559;50.476;15.588;2022-09-27T04:54:07;23.10;;;17.50;;
73107;SDS011;61559;50.476;15.588;2022-09-27T04:59:08;9.90;;;5.50;;
73107;SDS011;61559;50.476;15.588;2022-09-27T05:01:40;9.20;;;5.50;;
73107;SDS011;61559;50.476;15.588;2022-09-27T05:04:11;10.70;;;5.60;;
73107;SDS011;61559;50.476;15.588;2022-09-27T05:09:12;7.70;;;4.30;;
73107;SDS011;61559;50.476;15.588;2022-09-27T05:11:43;6.60;;;4.30;;
73107;SDS011;61559;50.476;15.588;2022-09-27T05:14:14;7.40;;;4.20;;
73107;SDS011;61559;50.476;15.588;2022-09-27T05:16:45;6.80;;;4.20;;
73107;SDS011;61559;50.476;15.588;2022-09-27T05:19:16;9.00;;;5.90;;
73107;SDS011;61559;50.476;15.588;2022-09-27T05:21:48;6.40;;;4.40;;
73107;SDS011;61559;50.476;15.588;2022-09-27T05:24:19;6.70;;;3.90;;
73107;SDS011;61559;50.476;15.588;2022-09-27T05:26:50;6.30;;;4.10;;
73107;SDS011;61559;50.476;15.588;2022-09-27T05:31:50;6.90;;;3.30;;
73107;SDS011;61559;50.476;15.588;2022-09-27T05:34:21;5.00;;;3.30;;
73107;SDS011;61559;50.476;15.588;2022-09-27T05:36:52;5.10;;;3.40;;
73107;SDS011;61559;50.476;15.588;2022-09-27T05:39:24;7.10;;;4.20;;
73107;SDS011;61559;50.476;15.588;2022-09-27T05:46:54;6.20;;;4.10;;
73107;SDS011;61559;50.476;15.588;2022-09-27T05:49:26;7.60;;;4.20;;
73107;SDS011;61559;50.476;15.588;2022-09-27T05:51:57;11.00;;;4.90;;
73107;SDS011;61559;50.476;15.588;2022-09-27T05:54:29;8.60;;;4.90;;
73107;SDS011;61559;50.476;15.588;2022-09-27T05:57:00;9.60;;;5.70;;
73107;SDS011;61559;50.476;15.588;2022-09-27T05:59:32;9.20;;;5.10;;
73107;SDS011;61559;50.476;15.588;2022-09-27T06:02:03;13.80;;;6.00;;
73107;SDS011;61559;50.476;15.588;2022-09-27T06:04:35;39.60;;;14.60;;
73107;SDS011;61559;50.476;15.588;2022-09-27T06:09:35;10.00;;;6.00;;
73107;SDS011;61559;50.476;15.588;2022-09-27T06:14:39;9.30;;;5.40;;
73107;SDS011;61559;50.476;15.588;2022-09-27T06:17:10;9.80;;;5.70;;
73107;SDS011;61559;50.476;15.588;2022-09-27T06:19:41;9.40;;;5.00;;
73107;SDS011;61559;50.476;15.588;2022-09-27T06:22:13;13.00;;;7.10;;
73107;SDS011;61559;50.476;15.588;2022-09-27T06:24:44;9.20;;;5.50;;
73107;SDS011;61559;50.476;15.588;2022-09-27T06:27:15;10.20;;;5.40;;
73107;SDS011;61559;50.476;15.588;2022-09-27T06:29:46;6.40;;;3.90;;
73107;SDS011;61559;50.476;15.588;2022-09-27T06:32:17;9.90;;;4.60;;
73107;SDS011;61559;50.476;15.588;2022-09-27T06:34:49;7.70;;;5.40;;
73107;SDS011;61559;50.476;15.588;2022-09-27T06:37:23;11.70;;;5.40;;
73107;SDS011;61559;50.476;15.588;2022-09-27T06:39:54;8.30;;;5.00;;
73107;SDS011;61559;50.476;15.588;2022-09-27T06:47:24;8.50;;;4.30;;
73107;SDS011;61559;50.476;15.588;2022-09-27T06:49:56;6.90;;;4.50;;
73107;SDS011;61559;50.476;15.588;2022-09-27T06:52:30;7.90;;;5.10;;
73107;SDS011;61559;50.476;15.588;2022-09-27T06:55:01;6.80;;;4.80;;
73107;SDS011;61559;50.476;15.588;2022-09-27T06:57:33;7.50;;;4.50;;
73107;SDS011;61559;50.476;15.588;2022-09-27T07:00:22;8.20;;;4.70;;
73107;SDS011;61559;50.476;15.588;2022-09-27T07:02:54;5.70;;;3.20;;
73107;SDS011;61559;50.476;15.588;2022-09-27T07:05:29;8.10;;;4.40;;
73107;SDS011;61559;50.476;15.588;2022-09-27T07:08:00;5.40;;;3.20;;
73107;SDS011;61559;50.476;15.588;2022-09-27T07:10:33;6.60;;;3.10;;
73107;SDS011;61559;50.476;15.588;2022-09-27T07:13:05;4.30;;;2.70;;
73107;SDS011;61559;50.476;15.588;2022-09-27T07:15:39;5.30;;;3.30;;
73107;SDS011;61559;50.476;15.588;2022-09-27T07:18:10;5.80;;;3.80;;
73107;SDS011;61559;50.476;15.588;2022-09-27T07:20:41;45.00;;;19.50;;
73107;SDS011;61559;50.476;15.588;2022-09-27T07:25:42;17.60;;;7.50;;
73107;SDS011;61559;50.476;15.588;2022-09-27T07:28:15;7.50;;;4.40;;
73107;SDS011;61559;50.476;15.588;2022-09-27T07:30:52;7.00;;;2.80;;
73107;SDS011;61559;50.476;15.588;2022-09-27T07:33:23;4.20;;;2.20;;
73107;SDS011;61559;50.476;15.588;2022-09-27T07:35:54;5.00;;;2.60;;
73107;SDS011;61559;50.476;15.588;2022-09-27T07:40:55;5.00;;;3.00;;
73107;SDS011;61559;50.476;15.588;2022-09-27T07:45:56;7.50;;;4.50;;
73107;SDS011;61559;50.476;15.588;2022-09-27T07:48:27;3.80;;;2.70;;
73107;SDS011;61559;50.476;15.588;2022-09-27T07:50:58;5.10;;;2.70;;
73107;SDS011;61559;50.476;15.588;2022-09-27T07:53:29;3.70;;;2.30;;
73107;SDS011;61559;50.476;15.588;2022-09-27T07:56:00;2.20;;;1.90;;
73107;SDS011;61559;50.476;15.588;2022-09-27T07:58:32;3.80;;;2.40;;
73107;SDS011;61559;50.476;15.588;2022-09-27T08:01:03;2.70;;;2.20;;
73107;SDS011;61559;50.476;15.588;2022-09-27T08:03:34;3.20;;;2.20;;
73107;SDS011;61559;50.476;15.588;2022-09-27T08:08:34;4.00;;;2.10;;
73107;SDS011;61559;50.476;15.588;2022-09-27T08:11:11;2.80;;;2.20;;
73107;SDS011;61559;50.476;15.588;2022-09-27T08:13:43;2.60;;;1.90;;
73107;SDS011;61559;50.476;15.588;2022-09-27T08:16:15;5.50;;;2.40;;
73107;SDS011;61559;50.476;15.588;2022-09-27T08:18:46;4.40;;;2.20;;
73107;SDS011;61559;50.476;15.588;2022-09-27T08:21:17;5.80;;;2.40;;
73107;SDS011;61559;50.476;15.588;2022-09-27T08:23:48;2.80;;;2.00;;
73107;SDS011;61559;50.476;15.588;2022-09-27T08:26:21;3.00;;;2.10;;
73107;SDS011;61559;50.476;15.588;2022-09-27T08:28:52;3.30;;;1.80;;
73107;SDS011;61559;50.476;15.588;2022-09-27T08:31:23;2.70;;;1.90;;
73107;SDS011;61559;50.476;15.588;2022-09-27T08:36:24;2.90;;;2.00;;
73107;SDS011;61559;50.476;15.588;2022-09-27T08:38:55;3.80;;;2.20;;
73107;SDS011;61559;50.476;15.588;2022-09-27T08:41:29;2.90;;;1.70;;
73107;SDS011;61559;50.476;15.588;2022-09-27T08:44:08;3.50;;;2.40;;
73107;SDS011;61559;50.476;15.588;2022-09-27T08:46:49;3.00;;;1.90;;
73107;SDS011;61559;50.476;15.588;2022-09-27T08:49:31;3.90;;;2.00;;
73107;SDS011;61559;50.476;15.588;2022-09-27T08:52:04;3.20;;;2.00;;
73107;SDS011;61559;50.476;15.588;2022-09-27T08:54:41;3.70;;;2.20;;
73107;SDS011;61559;50.476;15.588;2022-09-27T08:57:13;3.40;;;1.80;;
73107;SDS011;61559;50.476;15.588;2022-09-27T08:59:46;2.70;;;2.20;;
73107;SDS011;61559;50.476;15.588;2022-09-27T09:02:22;2.70;;;2.00;;
73107;SDS011;61559;50.476;15.588;2022-09-27T09:04:55;4.30;;;2.30;;
73107;SDS011;61559;50.476;15.588;2022-09-27T09:07:35;3.80;;;2.30;;
73107;SDS011;61559;50.476;15.588;2022-09-27T09:10:27;4.30;;;2.10;;
73107;SDS011;61559;50.476;15.588;2022-09-27T09:13:36;3.20;;;2.20;;
73107;SDS011;61559;50.476;15.588;2022-09-27T09:16:24;3.50;;;2.20;;
73107;SDS011;61559;50.476;15.588;2022-09-27T09:19:13;2.80;;;2.10;;
73107;SDS011;61559;50.476;15.588;2022-09-27T09:21:58;4.70;;;2.50;;
73107;SDS011;61559;50.476;15.588;2022-09-27T09:24:37;4.90;;;2.60;;
73107;SDS011;61559;50.476;15.588;2022-09-27T09:27:22;3.30;;;2.00;;
73107;SDS011;61559;50.476;15.588;2022-09-27T09:30:03;3.50;;;2.50;;
73107;SDS011;61559;50.476;15.588;2022-09-27T09:32:52;3.00;;;2.10;;
73107;SDS011;61559;50.476;15.588;2022-09-27T09:35:39;3.00;;;2.00;;
73107;SDS011;61559;50.476;15.588;2022-09-27T09:38:17;4.00;;;1.90;;
73107;SDS011;61559;50.476;15.588;2022-09-27T09:40:53;3.50;;;2.40;;
73107;SDS011;61559;50.476;15.588;2022-09-27T09:43:29;2.50;;;2.00;;
73107;SDS011;61559;50.476;15.588;2022-09-27T09:46:06;3.10;;;2.10;;
73107;SDS011;61559;50.476;15.588;2022-09-27T09:48:42;3.40;;;1.90;;
73107;SDS011;61559;50.476;15.588;2022-09-27T09:51:18;2.80;;;1.40;;
73107;SDS011;61559;50.476;15.588;2022-09-27T09:53:56;2.80;;;1.40;;
73107;SDS011;61559;50.476;15.588;2022-09-27T09:56:33;1.90;;;1.60;;
73107;SDS011;61559;50.476;15.588;2022-09-27T09:59:09;1.70;;;1.30;;
73107;SDS011;61559;50.476;15.588;2022-09-27T10:01:44;2.80;;;1.40;;
73107;SDS011;61559;50.476;15.588;2022-09-27T10:04:17;2.20;;;1.30;;
73107;SDS011;61559;50.476;15.588;2022-09-27T10:06:51;2.00;;;1.20;;
73107;SDS011;61559;50.476;15.588;2022-09-27T10:09:25;1.70;;;1.20;;
73107;SDS011;61559;50.476;15.588;2022-09-27T10:11:57;3.30;;;1.40;;
73107;SDS011;61559;50.476;15.588;2022-09-27T10:14:28;1.70;;;1.10;;
73107;SDS011;61559;50.476;15.588;2022-09-27T10:17:02;1.30;;;1.00;;
73107;SDS011;61559;50.476;15.588;2022-09-27T10:19:38;2.60;;;1.40;;
73107;SDS011;61559;50.476;15.588;2022-09-27T10:22:12;3.70;;;1.50;;
73107;SDS011;61559;50.476;15.588;2022-09-27T10:27:24;3.70;;;1.80;;
73107;SDS011;61559;50.476;15.588;2022-09-27T10:29:58;3.10;;;2.10;;
73107;SDS011;61559;50.476;15.588;2022-09-27T10:32:30;2.60;;;1.50;;
73107;SDS011;61559;50.476;15.588;2022-09-27T10:35:28;2.40;;;1.70;;
73107;SDS011;61559;50.476;15.588;2022-09-27T10:38:20;3.90;;;1.50;;
73107;SDS011;61559;50.476;15.588;2022-09-27T10:40:57;2.00;;;1.50;;
73107;SDS011;61559;50.476;15.588;2022-09-27T10:43:44;1.80;;;1.40;;
73107;SDS011;61559;50.476;15.588;2022-09-27T10:46:18;1.90;;;1.30;;
73107;SDS011;61559;50.476;15.588;2022-09-27T10:49:09;1.80;;;1.40;;
73107;SDS011;61559;50.476;15.588;2022-09-27T10:51:48;1.90;;;1.00;;
73107;SDS011;61559;50.476;15.588;2022-09-27T10:54:22;3.30;;;1.30;;
73107;SDS011;61559;50.476;15.588;2022-09-27T10:56:57;5.00;;;3.00;;
73107;SDS011;61559;50.476;15.588;2022-09-27T10:59:32;7.20;;;3.60;;
73107;SDS011;61559;50.476;15.588;2022-09-27T11:02:04;3.50;;;2.00;;
73107;SDS011;61559;50.476;15.588;2022-09-27T11:05:00;3.10;;;1.70;;
73107;SDS011;61559;50.476;15.588;2022-09-27T11:07:36;17.00;;;7.90;;
73107;SDS011;61559;50.476;15.588;2022-09-27T11:10:24;2.40;;;1.70;;
73107;SDS011;61559;50.476;15.588;2022-09-27T11:13:10;2.00;;;1.10;;
73107;SDS011;61559;50.476;15.588;2022-09-27T11:15:50;4.90;;;3.50;;
73107;SDS011;61559;50.476;15.588;2022-09-27T11:18:34;3.50;;;1.50;;
73107;SDS011;61559;50.476;15.588;2022-09-27T11:21:15;1.70;;;1.30;;
73107;SDS011;61559;50.476;15.588;2022-09-27T11:23:59;5.00;;;2.80;;
73107;SDS011;61559;50.476;15.588;2022-09-27T11:26:41;29.10;;;13.40;;
73107;SDS011;61559;50.476;15.588;2022-09-27T11:29:24;3.20;;;2.30;;
73107;SDS011;61559;50.476;15.588;2022-09-27T11:32:09;14.00;;;7.90;;
73107;SDS011;61559;50.476;15.588;2022-09-27T11:34:51;5.50;;;5.00;;
73107;SDS011;61559;50.476;15.588;2022-09-27T11:37:37;4.70;;;4.30;;
73107;SDS011;61559;50.476;15.588;2022-09-27T11:40:19;1.90;;;1.60;;
73107;SDS011;61559;50.476;15.588;2022-09-27T11:45:45;6.00;;;3.20;;
73107;SDS011;61559;50.476;15.588;2022-09-27T11:51:55;2.80;;;1.10;;
73107;SDS011;61559;50.476;15.588;2022-09-27T11:57:15;3.50;;;3.10;;
73107;SDS011;61559;50.476;15.588;2022-09-27T11:59:54;1.50;;;1.20;;
73107;SDS011;61559;50.476;15.588;2022-09-27T12:02:39;1.50;;;1.40;;
73107;SDS011;61559;50.476;15.588;2022-09-27T12:05:35;2.70;;;0.90;;
73107;SDS011;61559;50.476;15.588;2022-09-27T12:08:29;2.30;;;0.90;;
73107;SDS011;61559;50.476;15.588;2022-09-27T12:11:09;1.20;;;0.80;;
73107;SDS011;61559;50.476;15.588;2022-09-27T12:13:46;1.30;;;1.00;;
73107;SDS011;61559;50.476;15.588;2022-09-27T12:16:20;1.70;;;0.90;;
73107;SDS011;61559;50.476;15.588;2022-09-27T12:18:54;0.70;;;0.50;;
73107;SDS011;61559;50.476;15.588;2022-09-27T12:21:26;1.10;;;0.80;;
73107;SDS011;61559;50.476;15.588;2022-09-27T12:24:01;1.30;;;0.70;;
73107;SDS011;61559;50.476;15.588;2022-09-27T12:26:35;0.40;;;0.40;;
73107;SDS011;61559;50.476;15.588;2022-09-27T12:29:11;0.50;;;0.50;;
73107;SDS011;61559;50.476;15.588;2022-09-27T12:31:48;0.80;;;0.60;;
73107;SDS011;61559;50.476;15.588;2022-09-27T12:34:28;1.40;;;0.70;;
73107;SDS011;61559;50.476;15.588;2022-09-27T12:37:09;3.30;;;1.70;;
73107;SDS011;61559;50.476;15.588;2022-09-27T12:39:47;4.30;;;1.30;;
73107;SDS011;61559;50.476;15.588;2022-09-27T12:42:23;1.30;;;0.90;;
73107;SDS011;61559;50.476;15.588;2022-09-27T12:44:58;2.00;;;0.90;;
73107;SDS011;61559;50.476;15.588;2022-09-27T12:47:38;1.60;;;1.00;;
73107;SDS011;61559;50.476;15.588;2022-09-27T12:50:29;1.90;;;0.90;;
73107;SDS011;61559;50.476;15.588;2022-09-27T12:53:07;2.90;;;0.90;;
73107;SDS011;61559;50.476;15.588;2022-09-27T12:55:48;1.80;;;0.70;;
73107;SDS011;61559;50.476;15.588;2022-09-27T12:58:44;0.80;;;0.60;;
73107;SDS011;61559;50.476;15.588;2022-09-27T13:01:47;1.50;;;0.40;;
73107;SDS011;61559;50.476;15.588;2022-09-27T13:04:35;0.40;;;0.40;;
73107;SDS011;61559;50.476;15.588;2022-09-27T13:07:22;0.70;;;0.40;;
73107;SDS011;61559;50.476;15.588;2022-09-27T13:10:14;1.70;;;0.50;;
73107;SDS011;61559;50.476;15.588;2022-09-27T13:12:59;1.30;;;1.10;;
73107;SDS011;61559;50.476;15.588;2022-09-27T13:15:33;0.90;;;0.50;;
73107;SDS011;61559;50.476;15.588;2022-09-27T13:18:20;0.70;;;0.50;;
73107;SDS011;61559;50.476;15.588;2022-09-27T13:20:59;0.50;;;0.40;;
73107;SDS011;61559;50.476;15.588;2022-09-27T13:26:45;0.60;;;0.60;;
73107;SDS011;61559;50.476;15.588;2022-09-27T13:29:29;0.90;;;0.60;;
73107;SDS011;61559;50.476;15.588;2022-09-27T13:32:10;1.80;;;1.00;;
73107;SDS011;61559;50.476;15.588;2022-09-27T13:34:50;1.00;;;0.80;;
73107;SDS011;61559;50.476;15.588;2022-09-27T13:37:48;2.20;;;1.40;;
73107;SDS011;61559;50.476;15.588;2022-09-27T13:40:27;1.70;;;1.10;;
73107;SDS011;61559;50.476;15.588;2022-09-27T13:43:07;1.30;;;1.10;;
73107;SDS011;61559;50.476;15.588;2022-09-27T13:46:15;1.20;;;0.50;;
73107;SDS011;61559;50.476;15.588;2022-09-27T13:48:51;1.00;;;0.60;;
73107;SDS011;61559;50.476;15.588;2022-09-27T13:51:33;10.10;;;4.90;;
73107;SDS011;61559;50.476;15.588;2022-09-27T13:57:19;6.60;;;3.20;;
73107;SDS011;61559;50.476;15.588;2022-09-27T14:00:15;9.80;;;4.70;;
73107;SDS011;61559;50.476;15.588;2022-09-27T14:02:57;19.60;;;9.00;;
73107;SDS011;61559;50.476;15.588;2022-09-27T14:05:32;17.40;;;12.20;;
73107;SDS011;61559;50.476;15.588;2022-09-27T14:08:13;3.20;;;2.90;;
73107;SDS011;61559;50.476;15.588;2022-09-27T14:10:52;5.10;;;4.60;;
73107;SDS011;61559;50.476;15.588;2022-09-27T14:13:25;10.10;;;5.30;;
73107;SDS011;61559;50.476;15.588;2022-09-27T14:15:59;6.10;;;2.80;;
73107;SDS011;61559;50.476;15.588;2022-09-27T14:18:33;25.00;;;9.60;;
73107;SDS011;61559;50.476;15.588;2022-09-27T14:21:14;43.60;;;15.20;;
73107;SDS011;61559;50.476;15.588;2022-09-27T14:23:50;20.40;;;9.70;;
73107;SDS011;61559;50.476;15.588;2022-09-27T14:26:22;9.20;;;5.90;;
73107;SDS011;61559;50.476;15.588;2022-09-27T14:28:57;31.60;;;12.00;;
73107;SDS011;61559;50.476;15.588;2022-09-27T14:31:28;21.00;;;9.40;;
73107;SDS011;61559;50.476;15.588;2022-09-27T14:34:05;32.00;;;11.60;;
73107;SDS011;61559;50.476;15.588;2022-09-27T14:36:36;48.50;;;19.90;;
73107;SDS011;61559;50.476;15.588;2022-09-27T14:39:27;68.70;;;23.80;;
73107;SDS011;61559;50.476;15.588;2022-09-27T14:42:01;49.60;;;18.30;;
73107;SDS011;61559;50.476;15.588;2022-09-27T14:44:34;19.90;;;8.00;;
73107;SDS011;61559;50.476;15.588;2022-09-27T14:47:15;13.30;;;6.00;;
73107;SDS011;61559;50.476;15.588;2022-09-27T14:49:48;7.00;;;3.40;;
73107;SDS011;61559;50.476;15.588;2022-09-27T14:52:21;2.60;;;1.30;;
73107;SDS011;61559;50.476;15.588;2022-09-27T14:54:59;5.80;;;3.10;;
73107;SDS011;61559;50.476;15.588;2022-09-27T14:57:34;1.60;;;0.80;;
73107;SDS011;61559;50.476;15.588;2022-09-27T15:00:13;1.50;;;0.80;;
73107;SDS011;61559;50.476;15.588;2022-09-27T15:02:48;7.60;;;4.40;;
73107;SDS011;61559;50.476;15.588;2022-09-27T15:05:24;60.90;;;33.00;;
73107;SDS011;61559;50.476;15.588;2022-09-27T15:07:58;14.60;;;9.60;;
73107;SDS011;61559;50.476;15.588;2022-09-27T15:10:33;4.50;;;3.60;;
73107;SDS011;61559;50.476;15.588;2022-09-27T15:13:05;1.60;;;1.50;;
73107;SDS011;61559;50.476;15.588;2022-09-27T15:15:40;3.40;;;2.80;;
73107;SDS011;61559;50.476;15.588;2022-09-27T15:21:08;25.40;;;7.90;;
73107;SDS011;61559;50.476;15.588;2022-09-27T15:23:41;2.80;;;1.40;;
73107;SDS011;61559;50.476;15.588;2022-09-27T15:26:13;5.40;;;2.80;;
73107;SDS011;61559;50.476;15.588;2022-09-27T15:28:47;22.30;;;8.60;;
73107;SDS011;61559;50.476;15.588;2022-09-27T15:31:28;12.90;;;6.70;;
73107;SDS011;61559;50.476;15.588;2022-09-27T15:34:02;12.00;;;5.50;;
73107;SDS011;61559;50.476;15.588;2022-09-27T15:36:50;27.40;;;15.20;;
73107;SDS011;61559;50.476;15.588;2022-09-27T15:39:27;27.60;;;12.50;;
73107;SDS011;61559;50.476;15.588;2022-09-27T15:42:05;20.00;;;8.40;;
73107;SDS011;61559;50.476;15.588;2022-09-27T15:44:42;32.60;;;12.40;;
73107;SDS011;61559;50.476;15.588;2022-09-27T15:50:36;19.90;;;7.40;;
73107;SDS011;61559;50.476;15.588;2022-09-27T15:53:08;11.90;;;4.90;;
73107;SDS011;61559;50.476;15.588;2022-09-27T15:55:40;9.30;;;4.70;;
73107;SDS011;61559;50.476;15.588;2022-09-27T15:58:13;9.70;;;4.20;;
73107;SDS011;61559;50.476;15.588;2022-09-27T16:00:51;5.00;;;2.10;;
73107;SDS011;61559;50.476;15.588;2022-09-27T16:03:24;12.20;;;6.40;;
73107;SDS011;61559;50.476;15.588;2022-09-27T16:05:56;8.10;;;3.30;;
73107;SDS011;61559;50.476;15.588;2022-09-27T16:08:29;8.90;;;3.50;;
73107;SDS011;61559;50.476;15.588;2022-09-27T16:11:00;6.00;;;3.30;;
73107;SDS011;61559;50.476;15.588;2022-09-27T16:13:33;10.80;;;6.10;;
73107;SDS011;61559;50.476;15.588;2022-09-27T16:16:04;7.80;;;4.90;;
73107;SDS011;61559;50.476;15.588;2022-09-27T16:18:40;6.50;;;2.90;;
73107;SDS011;61559;50.476;15.588;2022-09-27T16:21:11;3.00;;;2.20;;
73107;SDS011;61559;50.476;15.588;2022-09-27T16:23:42;2.90;;;1.70;;
73107;SDS011;61559;50.476;15.588;2022-09-27T16:26:13;3.60;;;2.70;;
73107;SDS011;61559;50.476;15.588;2022-09-27T16:28:46;3.60;;;2.40;;
73107;SDS011;61559;50.476;15.588;2022-09-27T16:33:48;1.80;;;1.10;;
73107;SDS011;61559;50.476;15.588;2022-09-27T16:36:19;1.80;;;1.00;;
73107;SDS011;61559;50.476;15.588;2022-09-27T16:38:50;3.50;;;1.60;;
73107;SDS011;61559;50.476;15.588;2022-09-27T16:41:21;2.50;;;1.80;;